sensor_id;sensor_type;location;lat;lon;timestamp;temperature;humidity
20866;DHT22;10593;48.398;10.698;2023-06-14T00:01:44;20.20;33.10
20866;DHT22;10593;48.398;10.698;2023-06-14T00:04:14;20.10;33.20
20866;DHT22;10593;48.398;10.698;2023-06-14T00:06:42;20.10;33.30
20866;DHT22;10593;48.398;10.698;2023-06-14T00:09:11;20.10;33.50
20866;DHT22;10593;48.398;10.698;2023-06-14T00:11:41;20.10;33.60
20866;DHT22;10593;48.398;10.698;2023-06-14T00:14:07;20.00;33.50
20866;DHT22;10593;48.398;10.698;2023-06-14T00:16:33;20.00;33.30
20866;DHT22;10593;48.398;10.698;2023-06-14T00:19:03;20.00;33.60
20866;DHT22;10593;48.398;10.698;2023-06-14T00:21:30;19.90;34.00
20866;DHT22;10593;48.398;10.698;2023-06-14T00:23:58;19.90;34.10
20866;DHT22;10593;48.398;10.698;2023-06-14T00:26:24;19.90;34.20
20866;DHT22;10593;48.398;10.698;2023-06-14T00:28:51;19.80;34.10
20866;DHT22;10593;48.398;10.698;2023-06-14T00:31:20;19.80;34.00
20866;DHT22;10593;48.398;10.698;2023-06-14T00:33:46;19.80;34.00
20866;DHT22;10593;48.398;10.698;2023-06-14T00:36:12;19.80;34.00
20866;DHT22;10593;48.398;10.698;2023-06-14T00:38:38;19.70;34.10
20866;DHT22;10593;48.398;10.698;2023-06-14T00:41:03;19.70;34.00
20866;DHT22;10593;48.398;10.698;2023-06-14T00:43:29;19.60;33.70
20866;DHT22;10593;48.398;10.698;2023-06-14T00:45:55;19.60;33.70
20866;DHT22;10593;48.398;10.698;2023-06-14T00:48:21;19.50;33.60
20866;DHT22;10593;48.398;10.698;2023-06-14T00:50:49;19.60;33.80
20866;DHT22;10593;48.398;10.698;2023-06-14T00:53:18;19.50;33.80
20866;DHT22;10593;48.398;10.698;2023-06-14T00:55:46;19.50;34.10
20866;DHT22;10593;48.398;10.698;2023-06-14T00:58:12;19.50;34.50
20866;DHT22;10593;48.398;10.698;2023-06-14T01:00:39;19.40;34.50
20866;DHT22;10593;48.398;10.698;2023-06-14T01:03:05;19.40;34.60
20866;DHT22;10593;48.398;10.698;2023-06-14T01:05:32;19.30;34.50
20866;DHT22;10593;48.398;10.698;2023-06-14T01:08:13;19.30;35.10
20866;DHT22;10593;48.398;10.698;2023-06-14T01:11:05;19.20;34.40
20866;DHT22;10593;48.398;10.698;2023-06-14T01:13:39;19.20;34.40
20866;DHT22;10593;48.398;10.698;2023-06-14T01:16:08;19.20;34.40
20866;DHT22;10593;48.398;10.698;2023-06-14T01:18:35;19.10;34.30
20866;DHT22;10593;48.398;10.698;2023-06-14T01:21:01;19.10;34.30
20866;DHT22;10593;48.398;10.698;2023-06-14T01:23:32;19.10;34.30
20866;DHT22;10593;48.398;10.698;2023-06-14T01:25:59;19.00;34.20
20866;DHT22;10593;48.398;10.698;2023-06-14T01:28:28;19.00;34.30
20866;DHT22;10593;48.398;10.698;2023-06-14T01:31:00;19.00;34.30
20866;DHT22;10593;48.398;10.698;2023-06-14T01:33:29;19.00;34.60
20866;DHT22;10593;48.398;10.698;2023-06-14T01:35:57;18.90;34.60
20866;DHT22;10593;48.398;10.698;2023-06-14T01:38:26;19.00;35.00
20866;DHT22;10593;48.398;10.698;2023-06-14T01:40:54;18.90;35.10
20866;DHT22;10593;48.398;10.698;2023-06-14T01:43:22;18.90;35.20
20866;DHT22;10593;48.398;10.698;2023-06-14T01:45:50;18.80;35.20
20866;DHT22;10593;48.398;10.698;2023-06-14T01:48:17;18.80;35.30
20866;DHT22;10593;48.398;10.698;2023-06-14T01:50:45;18.70;35.30
20866;DHT22;10593;48.398;10.698;2023-06-14T01:53:10;18.80;35.40
20866;DHT22;10593;48.398;10.698;2023-06-14T01:55:37;18.70;35.40
20866;DHT22;10593;48.398;10.698;2023-06-14T01:58:03;18.70;35.50
20866;DHT22;10593;48.398;10.698;2023-06-14T02:00:30;18.70;35.50
20866;DHT22;10593;48.398;10.698;2023-06-14T02:02:55;18.60;35.20
20866;DHT22;10593;48.398;10.698;2023-06-14T02:05:21;18.60;35.10
20866;DHT22;10593;48.398;10.698;2023-06-14T02:07:47;18.60;35.30
20866;DHT22;10593;48.398;10.698;2023-06-14T02:10:13;18.50;35.20
20866;DHT22;10593;48.398;10.698;2023-06-14T02:12:39;18.50;35.40
20866;DHT22;10593;48.398;10.698;2023-06-14T02:15:05;18.50;35.50
20866;DHT22;10593;48.398;10.698;2023-06-14T02:17:32;18.50;35.60
20866;DHT22;10593;48.398;10.698;2023-06-14T02:19:58;18.40;35.50
20866;DHT22;10593;48.398;10.698;2023-06-14T02:22:24;18.40;35.50
20866;DHT22;10593;48.398;10.698;2023-06-14T02:24:50;18.30;35.30
20866;DHT22;10593;48.398;10.698;2023-06-14T02:27:16;18.30;35.40
20866;DHT22;10593;48.398;10.698;2023-06-14T02:29:42;18.30;35.50
20866;DHT22;10593;48.398;10.698;2023-06-14T02:32:07;18.20;35.40
20866;DHT22;10593;48.398;10.698;2023-06-14T02:34:34;18.20;35.80
20866;DHT22;10593;48.398;10.698;2023-06-14T02:37:00;18.10;35.90
20866;DHT22;10593;48.398;10.698;2023-06-14T02:39:28;18.10;36.00
20866;DHT22;10593;48.398;10.698;2023-06-14T02:41:54;18.10;36.00
20866;DHT22;10593;48.398;10.698;2023-06-14T02:44:24;18.10;36.10
20866;DHT22;10593;48.398;10.698;2023-06-14T02:46:54;18.10;36.30
20866;DHT22;10593;48.398;10.698;2023-06-14T02:49:22;18.00;35.90
20866;DHT22;10593;48.398;10.698;2023-06-14T02:51:47;18.00;35.80
20866;DHT22;10593;48.398;10.698;2023-06-14T02:54:13;18.00;35.80
20866;DHT22;10593;48.398;10.698;2023-06-14T02:56:39;17.90;35.50
20866;DHT22;10593;48.398;10.698;2023-06-14T02:59:05;17.90;35.50
20866;DHT22;10593;48.398;10.698;2023-06-14T03:01:32;17.90;35.60
20866;DHT22;10593;48.398;10.698;2023-06-14T03:04:08;17.80;35.70
20866;DHT22;10593;48.398;10.698;2023-06-14T03:06:35;17.80;35.70
20866;DHT22;10593;48.398;10.698;2023-06-14T03:09:01;17.80;35.80
20866;DHT22;10593;48.398;10.698;2023-06-14T03:11:30;17.80;35.70
20866;DHT22;10593;48.398;10.698;2023-06-14T03:13:57;17.80;35.70
20866;DHT22;10593;48.398;10.698;2023-06-14T03:16:23;17.70;35.70
20866;DHT22;10593;48.398;10.698;2023-06-14T03:18:53;17.70;35.90
20866;DHT22;10593;48.398;10.698;2023-06-14T03:21:19;17.70;36.00
20866;DHT22;10593;48.398;10.698;2023-06-14T03:23:46;17.70;36.10
20866;DHT22;10593;48.398;10.698;2023-06-14T03:26:13;17.60;36.20
20866;DHT22;10593;48.398;10.698;2023-06-14T03:28:46;17.60;36.30
20866;DHT22;10593;48.398;10.698;2023-06-14T03:31:13;17.60;36.50
20866;DHT22;10593;48.398;10.698;2023-06-14T03:33:39;17.60;36.60
20866;DHT22;10593;48.398;10.698;2023-06-14T03:36:06;17.50;36.50
20866;DHT22;10593;48.398;10.698;2023-06-14T03:38:34;17.50;36.60
20866;DHT22;10593;48.398;10.698;2023-06-14T03:41:00;17.50;36.60
20866;DHT22;10593;48.398;10.698;2023-06-14T03:43:27;17.40;36.60
20866;DHT22;10593;48.398;10.698;2023-06-14T03:45:53;17.40;36.60
20866;DHT22;10593;48.398;10.698;2023-06-14T03:48:18;17.40;36.70
20866;DHT22;10593;48.398;10.698;2023-06-14T03:50:44;17.40;36.90
20866;DHT22;10593;48.398;10.698;2023-06-14T03:53:10;17.30;36.80
20866;DHT22;10593;48.398;10.698;2023-06-14T03:55:36;17.40;36.90
20866;DHT22;10593;48.398;10.698;2023-06-14T03:58:03;17.30;36.70
20866;DHT22;10593;48.398;10.698;2023-06-14T04:00:29;17.30;36.70
20866;DHT22;10593;48.398;10.698;2023-06-14T04:02:54;17.20;36.80
20866;DHT22;10593;48.398;10.698;2023-06-14T04:05:20;17.20;37.00
20866;DHT22;10593;48.398;10.698;2023-06-14T04:07:46;17.20;37.20
20866;DHT22;10593;48.398;10.698;2023-06-14T04:10:15;17.20;37.00
20866;DHT22;10593;48.398;10.698;2023-06-14T04:12:41;17.20;37.10
20866;DHT22;10593;48.398;10.698;2023-06-14T04:15:08;17.20;37.00
20866;DHT22;10593;48.398;10.698;2023-06-14T04:17:34;17.20;37.00
20866;DHT22;10593;48.398;10.698;2023-06-14T04:20:01;17.20;36.90
20866;DHT22;10593;48.398;10.698;2023-06-14T04:22:30;17.20;36.90
20866;DHT22;10593;48.398;10.698;2023-06-14T04:24:57;17.20;37.00
20866;DHT22;10593;48.398;10.698;2023-06-14T04:27:23;17.20;37.00
20866;DHT22;10593;48.398;10.698;2023-06-14T04:29:52;17.20;37.00
20866;DHT22;10593;48.398;10.698;2023-06-14T04:32:25;17.20;37.10
20866;DHT22;10593;48.398;10.698;2023-06-14T04:34:55;17.20;37.40
20866;DHT22;10593;48.398;10.698;2023-06-14T04:37:22;17.20;37.50
20866;DHT22;10593;48.398;10.698;2023-06-14T04:39:50;17.30;37.60
20866;DHT22;10593;48.398;10.698;2023-06-14T04:42:17;17.30;37.70
20866;DHT22;10593;48.398;10.698;2023-06-14T04:44:45;17.30;37.80
20866;DHT22;10593;48.398;10.698;2023-06-14T04:47:13;17.40;37.90
20866;DHT22;10593;48.398;10.698;2023-06-14T04:49:39;17.40;37.90
20866;DHT22;10593;48.398;10.698;2023-06-14T04:52:06;17.40;37.70
20866;DHT22;10593;48.398;10.698;2023-06-14T04:54:32;17.50;37.80
20866;DHT22;10593;48.398;10.698;2023-06-14T04:56:59;17.50;37.80
20866;DHT22;10593;48.398;10.698;2023-06-14T04:59:25;17.50;37.80
20866;DHT22;10593;48.398;10.698;2023-06-14T05:01:51;17.60;37.90
20866;DHT22;10593;48.398;10.698;2023-06-14T05:04:19;17.70;38.20
20866;DHT22;10593;48.398;10.698;2023-06-14T05:06:45;17.70;38.20
20866;DHT22;10593;48.398;10.698;2023-06-14T05:09:13;17.80;38.50
20866;DHT22;10593;48.398;10.698;2023-06-14T05:11:39;17.80;38.70
20866;DHT22;10593;48.398;10.698;2023-06-14T05:14:05;17.80;38.70
20866;DHT22;10593;48.398;10.698;2023-06-14T05:16:31;17.90;38.90
20866;DHT22;10593;48.398;10.698;2023-06-14T05:18:58;18.00;38.90
20866;DHT22;10593;48.398;10.698;2023-06-14T05:21:24;18.00;39.00
20866;DHT22;10593;48.398;10.698;2023-06-14T05:23:49;18.00;39.00
20866;DHT22;10593;48.398;10.698;2023-06-14T05:26:16;18.10;39.10
20866;DHT22;10593;48.398;10.698;2023-06-14T05:28:42;18.20;39.30
20866;DHT22;10593;48.398;10.698;2023-06-14T05:31:07;18.30;39.30
20866;DHT22;10593;48.398;10.698;2023-06-14T05:33:33;18.30;39.20
20866;DHT22;10593;48.398;10.698;2023-06-14T05:35:59;18.40;39.30
20866;DHT22;10593;48.398;10.698;2023-06-14T05:38:24;18.40;39.20
20866;DHT22;10593;48.398;10.698;2023-06-14T05:40:50;18.50;39.20
20866;DHT22;10593;48.398;10.698;2023-06-14T05:43:16;18.50;39.20
20866;DHT22;10593;48.398;10.698;2023-06-14T05:45:42;18.60;39.20
20866;DHT22;10593;48.398;10.698;2023-06-14T05:48:07;18.70;39.80
20866;DHT22;10593;48.398;10.698;2023-06-14T05:50:33;18.80;39.20
20866;DHT22;10593;48.398;10.698;2023-06-14T05:52:59;18.80;39.10
20866;DHT22;10593;48.398;10.698;2023-06-14T05:55:24;18.90;39.00
20866;DHT22;10593;48.398;10.698;2023-06-14T05:57:50;18.90;39.10
20866;DHT22;10593;48.398;10.698;2023-06-14T06:00:17;19.00;39.00
20866;DHT22;10593;48.398;10.698;2023-06-14T06:02:43;19.10;38.80
20866;DHT22;10593;48.398;10.698;2023-06-14T06:05:11;19.10;39.20
20866;DHT22;10593;48.398;10.698;2023-06-14T06:07:37;19.20;39.10
20866;DHT22;10593;48.398;10.698;2023-06-14T06:10:05;19.20;39.00
20866;DHT22;10593;48.398;10.698;2023-06-14T06:12:31;19.30;39.00
20866;DHT22;10593;48.398;10.698;2023-06-14T06:14:58;19.40;39.10
20866;DHT22;10593;48.398;10.698;2023-06-14T06:17:25;19.50;39.10
20866;DHT22;10593;48.398;10.698;2023-06-14T06:19:51;19.60;39.10
20866;DHT22;10593;48.398;10.698;2023-06-14T06:22:17;19.60;39.10
20866;DHT22;10593;48.398;10.698;2023-06-14T06:24:42;19.70;38.80
20866;DHT22;10593;48.398;10.698;2023-06-14T06:27:08;19.80;38.30
20866;DHT22;10593;48.398;10.698;2023-06-14T06:29:34;19.90;38.10
20866;DHT22;10593;48.398;10.698;2023-06-14T06:32:00;19.90;37.90
20866;DHT22;10593;48.398;10.698;2023-06-14T06:34:27;20.00;37.80
20866;DHT22;10593;48.398;10.698;2023-06-14T06:36:53;20.00;37.70
20866;DHT22;10593;48.398;10.698;2023-06-14T06:39:19;20.00;38.40
20866;DHT22;10593;48.398;10.698;2023-06-14T06:41:44;20.10;38.00
20866;DHT22;10593;48.398;10.698;2023-06-14T06:44:10;20.20;38.40
20866;DHT22;10593;48.398;10.698;2023-06-14T06:46:36;20.20;38.30
20866;DHT22;10593;48.398;10.698;2023-06-14T06:49:06;20.20;38.40
20866;DHT22;10593;48.398;10.698;2023-06-14T06:51:34;20.40;38.50
20866;DHT22;10593;48.398;10.698;2023-06-14T06:54:01;20.40;38.70
20866;DHT22;10593;48.398;10.698;2023-06-14T06:56:27;20.50;38.60
20866;DHT22;10593;48.398;10.698;2023-06-14T06:58:53;20.50;39.00
20866;DHT22;10593;48.398;10.698;2023-06-14T07:01:19;20.60;38.50
20866;DHT22;10593;48.398;10.698;2023-06-14T07:03:45;20.60;38.00
20866;DHT22;10593;48.398;10.698;2023-06-14T07:06:11;20.70;37.50
20866;DHT22;10593;48.398;10.698;2023-06-14T07:08:38;20.80;37.90
20866;DHT22;10593;48.398;10.698;2023-06-14T07:11:04;20.90;37.70
20866;DHT22;10593;48.398;10.698;2023-06-14T07:13:31;20.90;37.50
20866;DHT22;10593;48.398;10.698;2023-06-14T07:15:58;20.90;37.40
20866;DHT22;10593;48.398;10.698;2023-06-14T07:18:26;21.00;37.20
20866;DHT22;10593;48.398;10.698;2023-06-14T07:20:53;21.10;37.10
20866;DHT22;10593;48.398;10.698;2023-06-14T07:23:19;21.10;37.50
20866;DHT22;10593;48.398;10.698;2023-06-14T07:25:46;21.10;37.50
20866;DHT22;10593;48.398;10.698;2023-06-14T07:28:12;21.20;37.30
20866;DHT22;10593;48.398;10.698;2023-06-14T07:30:37;21.10;36.70
20866;DHT22;10593;48.398;10.698;2023-06-14T07:33:03;21.20;36.50
20866;DHT22;10593;48.398;10.698;2023-06-14T07:35:29;21.20;36.60
20866;DHT22;10593;48.398;10.698;2023-06-14T07:37:54;21.30;36.20
20866;DHT22;10593;48.398;10.698;2023-06-14T07:40:20;21.30;36.20
20866;DHT22;10593;48.398;10.698;2023-06-14T07:42:46;21.30;36.70
20866;DHT22;10593;48.398;10.698;2023-06-14T07:45:14;21.40;36.90
20866;DHT22;10593;48.398;10.698;2023-06-14T07:47:39;21.40;36.30
20866;DHT22;10593;48.398;10.698;2023-06-14T07:50:05;21.50;36.40
20866;DHT22;10593;48.398;10.698;2023-06-14T07:52:31;21.50;36.60
20866;DHT22;10593;48.398;10.698;2023-06-14T07:54:57;21.60;36.60
20866;DHT22;10593;48.398;10.698;2023-06-14T07:57:24;21.60;36.80
20866;DHT22;10593;48.398;10.698;2023-06-14T07:59:50;21.70;37.10
20866;DHT22;10593;48.398;10.698;2023-06-14T08:02:16;21.70;36.90
20866;DHT22;10593;48.398;10.698;2023-06-14T08:04:41;21.80;36.60
20866;DHT22;10593;48.398;10.698;2023-06-14T08:07:08;21.90;36.70
20866;DHT22;10593;48.398;10.698;2023-06-14T08:09:34;21.90;36.80
20866;DHT22;10593;48.398;10.698;2023-06-14T08:12:03;22.00;36.80
20866;DHT22;10593;48.398;10.698;2023-06-14T08:14:33;22.10;36.80
20866;DHT22;10593;48.398;10.698;2023-06-14T08:16:59;22.10;35.90
20866;DHT22;10593;48.398;10.698;2023-06-14T08:19:24;22.20;36.00
20866;DHT22;10593;48.398;10.698;2023-06-14T08:21:50;22.20;35.90
20866;DHT22;10593;48.398;10.698;2023-06-14T08:24:16;22.30;36.00
20866;DHT22;10593;48.398;10.698;2023-06-14T08:26:42;22.30;35.90
20866;DHT22;10593;48.398;10.698;2023-06-14T08:29:08;22.40;35.70
20866;DHT22;10593;48.398;10.698;2023-06-14T08:31:34;22.40;35.70
20866;DHT22;10593;48.398;10.698;2023-06-14T08:34:00;22.50;35.50
20866;DHT22;10593;48.398;10.698;2023-06-14T08:36:25;22.60;36.00
20866;DHT22;10593;48.398;10.698;2023-06-14T08:38:51;22.60;35.40
20866;DHT22;10593;48.398;10.698;2023-06-14T08:41:21;22.60;34.80
20866;DHT22;10593;48.398;10.698;2023-06-14T08:43:51;22.70;34.90
20866;DHT22;10593;48.398;10.698;2023-06-14T08:46:18;22.70;35.00
20866;DHT22;10593;48.398;10.698;2023-06-14T08:48:47;22.80;34.80
20866;DHT22;10593;48.398;10.698;2023-06-14T08:51:17;22.90;35.50
20866;DHT22;10593;48.398;10.698;2023-06-14T08:53:44;22.90;34.80
20866;DHT22;10593;48.398;10.698;2023-06-14T08:56:11;22.90;34.80
20866;DHT22;10593;48.398;10.698;2023-06-14T08:58:44;22.90;34.60
20866;DHT22;10593;48.398;10.698;2023-06-14T09:01:13;23.00;33.80
20866;DHT22;10593;48.398;10.698;2023-06-14T09:03:43;23.00;33.80
20866;DHT22;10593;48.398;10.698;2023-06-14T09:06:10;23.00;33.90
20866;DHT22;10593;48.398;10.698;2023-06-14T09:08:42;23.00;34.70
20866;DHT22;10593;48.398;10.698;2023-06-14T09:11:13;23.00;34.20
20866;DHT22;10593;48.398;10.698;2023-06-14T09:13:41;23.10;34.40
20866;DHT22;10593;48.398;10.698;2023-06-14T09:16:08;23.10;34.40
20866;DHT22;10593;48.398;10.698;2023-06-14T09:18:37;23.10;34.60
20866;DHT22;10593;48.398;10.698;2023-06-14T09:21:08;23.20;34.30
20866;DHT22;10593;48.398;10.698;2023-06-14T09:23:37;23.20;34.40
20866;DHT22;10593;48.398;10.698;2023-06-14T09:26:22;23.20;34.40
20866;DHT22;10593;48.398;10.698;2023-06-14T09:28:49;23.30;34.40
20866;DHT22;10593;48.398;10.698;2023-06-14T09:31:19;23.30;34.50
20866;DHT22;10593;48.398;10.698;2023-06-14T09:33:47;23.40;34.80
20866;DHT22;10593;48.398;10.698;2023-06-14T09:36:26;23.40;35.00
20866;DHT22;10593;48.398;10.698;2023-06-14T09:38:57;23.50;34.30
20866;DHT22;10593;48.398;10.698;2023-06-14T09:41:37;23.50;34.40
20866;DHT22;10593;48.398;10.698;2023-06-14T09:44:07;23.60;33.50
20866;DHT22;10593;48.398;10.698;2023-06-14T09:46:35;23.60;33.80
20866;DHT22;10593;48.398;10.698;2023-06-14T09:49:02;23.60;33.80
20866;DHT22;10593;48.398;10.698;2023-06-14T09:51:30;23.70;33.70
20866;DHT22;10593;48.398;10.698;2023-06-14T09:54:01;23.70;33.10
20866;DHT22;10593;48.398;10.698;2023-06-14T09:56:31;23.80;32.00
20866;DHT22;10593;48.398;10.698;2023-06-14T09:59:00;23.80;31.80
20866;DHT22;10593;48.398;10.698;2023-06-14T10:01:31;23.80;31.30
20866;DHT22;10593;48.398;10.698;2023-06-14T10:04:04;23.80;31.10
20866;DHT22;10593;48.398;10.698;2023-06-14T10:06:31;23.80;31.70
20866;DHT22;10593;48.398;10.698;2023-06-14T10:09:00;23.80;31.80
20866;DHT22;10593;48.398;10.698;2023-06-14T10:11:27;23.80;32.00
20866;DHT22;10593;48.398;10.698;2023-06-14T10:13:54;23.80;31.60
20866;DHT22;10593;48.398;10.698;2023-06-14T10:16:24;23.80;31.70
20866;DHT22;10593;48.398;10.698;2023-06-14T10:22:21;23.70;31.30
20866;DHT22;10593;48.398;10.698;2023-06-14T10:24:54;23.70;31.70
20866;DHT22;10593;48.398;10.698;2023-06-14T10:27:21;23.70;31.80
20866;DHT22;10593;48.398;10.698;2023-06-14T10:32:28;23.70;32.40
20866;DHT22;10593;48.398;10.698;2023-06-14T10:37:32;23.70;32.40
20866;DHT22;10593;48.398;10.698;2023-06-14T10:39:58;23.70;31.40
20866;DHT22;10593;48.398;10.698;2023-06-14T10:42:28;23.70;30.90
20866;DHT22;10593;48.398;10.698;2023-06-14T10:44:57;23.70;30.90
20866;DHT22;10593;48.398;10.698;2023-06-14T10:47:30;23.70;30.80
20866;DHT22;10593;48.398;10.698;2023-06-14T10:50:08;23.70;31.30
20866;DHT22;10593;48.398;10.698;2023-06-14T10:52:40;23.70;31.40
20866;DHT22;10593;48.398;10.698;2023-06-14T10:55:12;23.60;31.00
20866;DHT22;10593;48.398;10.698;2023-06-14T10:57:53;23.60;30.60
20866;DHT22;10593;48.398;10.698;2023-06-14T11:00:25;23.60;30.70
20866;DHT22;10593;48.398;10.698;2023-06-14T11:03:36;23.50;30.90
20866;DHT22;10593;48.398;10.698;2023-06-14T11:06:15;23.50;30.70
20866;DHT22;10593;48.398;10.698;2023-06-14T11:11:45;23.50;30.60
20866;DHT22;10593;48.398;10.698;2023-06-14T11:14:12;23.50;31.20
20866;DHT22;10593;48.398;10.698;2023-06-14T11:16:38;23.40;31.40
20866;DHT22;10593;48.398;10.698;2023-06-14T11:19:03;23.50;31.50
20866;DHT22;10593;48.398;10.698;2023-06-14T11:21:32;23.50;31.50
20866;DHT22;10593;48.398;10.698;2023-06-14T11:23:58;23.50;31.30
20866;DHT22;10593;48.398;10.698;2023-06-14T11:26:28;23.50;31.30
20866;DHT22;10593;48.398;10.698;2023-06-14T11:28:59;23.60;30.30
20866;DHT22;10593;48.398;10.698;2023-06-14T11:31:27;23.60;30.70
20866;DHT22;10593;48.398;10.698;2023-06-14T11:33:54;23.60;30.20
20866;DHT22;10593;48.398;10.698;2023-06-14T11:36:31;23.70;30.70
20866;DHT22;10593;48.398;10.698;2023-06-14T11:39:03;23.70;30.50
20866;DHT22;10593;48.398;10.698;2023-06-14T11:41:45;23.80;29.80
20866;DHT22;10593;48.398;10.698;2023-06-14T11:44:11;23.90;29.80
20866;DHT22;10593;48.398;10.698;2023-06-14T11:46:37;23.90;29.90
20866;DHT22;10593;48.398;10.698;2023-06-14T11:49:04;23.90;29.30
20866;DHT22;10593;48.398;10.698;2023-06-14T11:51:35;23.90;29.10
20866;DHT22;10593;48.398;10.698;2023-06-14T11:54:03;24.00;28.80
20866;DHT22;10593;48.398;10.698;2023-06-14T11:56:30;24.00;28.40
20866;DHT22;10593;48.398;10.698;2023-06-14T11:58:57;24.00;28.70
20866;DHT22;10593;48.398;10.698;2023-06-14T12:01:23;24.00;28.80
20866;DHT22;10593;48.398;10.698;2023-06-14T12:03:53;24.10;28.80
20866;DHT22;10593;48.398;10.698;2023-06-14T12:06:30;24.10;29.50
20866;DHT22;10593;48.398;10.698;2023-06-14T12:09:04;24.20;28.90
20866;DHT22;10593;48.398;10.698;2023-06-14T12:11:34;24.20;29.20
20866;DHT22;10593;48.398;10.698;2023-06-14T12:14:00;24.30;29.00
20866;DHT22;10593;48.398;10.698;2023-06-14T12:16:35;24.40;29.00
20866;DHT22;10593;48.398;10.698;2023-06-14T12:19:14;24.40;28.80
20866;DHT22;10593;48.398;10.698;2023-06-14T12:21:41;24.50;29.00
20866;DHT22;10593;48.398;10.698;2023-06-14T12:24:08;24.50;28.80
20866;DHT22;10593;48.398;10.698;2023-06-14T12:26:38;24.60;28.80
20866;DHT22;10593;48.398;10.698;2023-06-14T12:29:06;24.70;28.70
20866;DHT22;10593;48.398;10.698;2023-06-14T12:31:33;24.70;28.40
20866;DHT22;10593;48.398;10.698;2023-06-14T12:33:59;24.70;28.10
20866;DHT22;10593;48.398;10.698;2023-06-14T12:36:24;24.70;27.80
20866;DHT22;10593;48.398;10.698;2023-06-14T12:38:51;24.70;27.80
20866;DHT22;10593;48.398;10.698;2023-06-14T12:41:20;24.80;28.00
20866;DHT22;10593;48.398;10.698;2023-06-14T12:43:47;24.80;28.00
20866;DHT22;10593;48.398;10.698;2023-06-14T12:46:13;24.80;28.00
20866;DHT22;10593;48.398;10.698;2023-06-14T12:48:39;24.80;28.40
20866;DHT22;10593;48.398;10.698;2023-06-14T12:51:05;24.90;28.30
20866;DHT22;10593;48.398;10.698;2023-06-14T12:53:30;24.90;27.50
20866;DHT22;10593;48.398;10.698;2023-06-14T12:55:56;24.90;27.60
20866;DHT22;10593;48.398;10.698;2023-06-14T12:58:21;24.90;28.50
20866;DHT22;10593;48.398;10.698;2023-06-14T13:00:49;24.90;28.80
20866;DHT22;10593;48.398;10.698;2023-06-14T13:03:15;25.00;28.80
20866;DHT22;10593;48.398;10.698;2023-06-14T13:05:40;25.00;29.10
20866;DHT22;10593;48.398;10.698;2023-06-14T13:08:07;25.00;28.80
20866;DHT22;10593;48.398;10.698;2023-06-14T13:10:34;24.90;28.80
20866;DHT22;10593;48.398;10.698;2023-06-14T13:12:59;24.90;28.70
20866;DHT22;10593;48.398;10.698;2023-06-14T13:15:26;25.00;28.90
20866;DHT22;10593;48.398;10.698;2023-06-14T13:17:52;25.00;28.70
20866;DHT22;10593;48.398;10.698;2023-06-14T13:20:18;25.00;28.80
20866;DHT22;10593;48.398;10.698;2023-06-14T13:22:44;25.00;28.40
20866;DHT22;10593;48.398;10.698;2023-06-14T13:25:09;25.00;28.40
20866;DHT22;10593;48.398;10.698;2023-06-14T13:27:35;25.00;28.20
20866;DHT22;10593;48.398;10.698;2023-06-14T13:30:01;25.10;27.70
20866;DHT22;10593;48.398;10.698;2023-06-14T13:32:27;25.00;28.10
20866;DHT22;10593;48.398;10.698;2023-06-14T13:34:53;25.10;27.70
20866;DHT22;10593;48.398;10.698;2023-06-14T13:37:19;25.10;27.70
20866;DHT22;10593;48.398;10.698;2023-06-14T13:39:45;25.10;27.30
20866;DHT22;10593;48.398;10.698;2023-06-14T13:42:10;25.10;27.60
20866;DHT22;10593;48.398;10.698;2023-06-14T13:44:36;25.10;27.50
20866;DHT22;10593;48.398;10.698;2023-06-14T13:47:02;25.10;27.10
20866;DHT22;10593;48.398;10.698;2023-06-14T13:49:28;25.10;27.10
20866;DHT22;10593;48.398;10.698;2023-06-14T13:51:54;25.10;27.40
20866;DHT22;10593;48.398;10.698;2023-06-14T13:54:20;25.10;27.60
20866;DHT22;10593;48.398;10.698;2023-06-14T13:56:47;25.10;27.80
20866;DHT22;10593;48.398;10.698;2023-06-14T13:59:13;25.20;28.10
20866;DHT22;10593;48.398;10.698;2023-06-14T14:01:39;25.20;28.10
20866;DHT22;10593;48.398;10.698;2023-06-14T14:04:05;25.20;28.00
20866;DHT22;10593;48.398;10.698;2023-06-14T14:06:31;25.20;28.20
20866;DHT22;10593;48.398;10.698;2023-06-14T14:08:57;25.30;28.10
20866;DHT22;10593;48.398;10.698;2023-06-14T14:11:23;25.30;27.70
20866;DHT22;10593;48.398;10.698;2023-06-14T14:13:49;25.30;28.00
20866;DHT22;10593;48.398;10.698;2023-06-14T14:16:14;25.30;28.00
20866;DHT22;10593;48.398;10.698;2023-06-14T14:18:40;25.30;28.10
20866;DHT22;10593;48.398;10.698;2023-06-14T14:21:06;25.30;28.00
20866;DHT22;10593;48.398;10.698;2023-06-14T14:23:32;25.40;27.90
20866;DHT22;10593;48.398;10.698;2023-06-14T14:25:57;25.40;27.60
20866;DHT22;10593;48.398;10.698;2023-06-14T14:28:23;25.40;27.80
20866;DHT22;10593;48.398;10.698;2023-06-14T14:30:49;25.40;27.80
20866;DHT22;10593;48.398;10.698;2023-06-14T14:33:15;25.50;27.80
20866;DHT22;10593;48.398;10.698;2023-06-14T14:35:43;25.40;28.20
20866;DHT22;10593;48.398;10.698;2023-06-14T14:38:11;25.50;28.50
20866;DHT22;10593;48.398;10.698;2023-06-14T14:40:39;25.50;28.40
20866;DHT22;10593;48.398;10.698;2023-06-14T14:43:05;25.50;28.20
20866;DHT22;10593;48.398;10.698;2023-06-14T14:45:31;25.50;28.10
20866;DHT22;10593;48.398;10.698;2023-06-14T14:47:57;25.50;28.00
20866;DHT22;10593;48.398;10.698;2023-06-14T14:50:23;25.50;27.80
20866;DHT22;10593;48.398;10.698;2023-06-14T14:52:50;25.50;28.10
20866;DHT22;10593;48.398;10.698;2023-06-14T14:55:15;25.50;27.80
20866;DHT22;10593;48.398;10.698;2023-06-14T14:57:41;25.50;27.80
20866;DHT22;10593;48.398;10.698;2023-06-14T15:00:08;25.50;27.80
20866;DHT22;10593;48.398;10.698;2023-06-14T15:02:34;25.50;27.80
20866;DHT22;10593;48.398;10.698;2023-06-14T15:05:00;25.50;27.80
20866;DHT22;10593;48.398;10.698;2023-06-14T15:07:30;25.40;28.00
20866;DHT22;10593;48.398;10.698;2023-06-14T15:09:57;25.40;27.40
20866;DHT22;10593;48.398;10.698;2023-06-14T15:12:22;25.40;27.10
20866;DHT22;10593;48.398;10.698;2023-06-14T15:14:52;25.40;26.60
20866;DHT22;10593;48.398;10.698;2023-06-14T15:17:21;25.40;27.30
20866;DHT22;10593;48.398;10.698;2023-06-14T15:19:47;25.40;27.50
20866;DHT22;10593;48.398;10.698;2023-06-14T15:22:14;25.40;27.80
20866;DHT22;10593;48.398;10.698;2023-06-14T15:24:41;25.40;28.00
20866;DHT22;10593;48.398;10.698;2023-06-14T15:27:07;25.50;28.50
20866;DHT22;10593;48.398;10.698;2023-06-14T15:29:33;25.40;28.00